sensor_id;sensor_type;location;lat;lon;timestamp;P1;durP1;ratioP1;P2;durP2;ratioP2
72785;SDS011;60902;53.876;10.674;2023-03-01T00:00:36;9.32;;;5.88;;
72785;SDS011;60902;53.876;10.674;2023-03-01T00:00:47;10.00;;;5.85;;
72785;SDS011;60902;53.876;10.674;2023-03-01T00:01:02;10.23;;;6.00;;
72785;SDS011;60902;53.876;10.674;2023-03-01T00:01:14;9.63;;;5.90;;
72785;SDS011;60902;53.876;10.674;2023-03-01T00:01:28;8.40;;;5.30;;
72785;SDS011;60902;53.876;10.674;2023-03-01T00:01:41;8.65;;;5.60;;
72785;SDS011;60902;53.876;10.674;2023-03-01T00:01:52;9.20;;;6.05;;
72785;SDS011;60902;53.876;10.674;2023-03-01T00:02:03;9.00;;;6.03;;
72785;SDS011;60902;53.876;10.674;2023-03-01T00:02:21;9.35;;;6.10;;
72785;SDS011;60902;53.876;10.674;2023-03-01T00:02:32;9.88;;;6.22;;
72785;SDS011;60902;53.876;10.674;2023-03-01T00:02:43;9.83;;;6.00;;
72785;SDS011;60902;53.876;10.674;2023-03-01T00:02:54;9.82;;;6.03;;
72785;SDS011;60902;53.876;10.674;2023-03-01T00:03:05;10.38;;;6.15;;
72785;SDS011;60902;53.876;10.674;2023-03-01T00:03:17;9.98;;;6.18;;
72785;SDS011;60902;53.876;10.674;2023-03-01T00:03:28;10.23;;;6.28;;
72785;SDS011;60902;53.876;10.674;2023-03-01T00:03:40;9.68;;;6.07;;
72785;SDS011;60902;53.876;10.674;2023-03-01T00:03:54;10.05;;;5.80;;
72785;SDS011;60902;53.876;10.674;2023-03-01T00:04:07;10.20;;;5.47;;
72785;SDS011;60902;53.876;10.674;2023-03-01T00:04:27;9.90;;;5.47;;
72785;SDS011;60902;53.876;10.674;2023-03-01T00:04:39;10.00;;;5.82;;
72785;SDS011;60902;53.876;10.674;2023-03-01T00:04:50;9.88;;;5.95;;
72785;SDS011;60902;53.876;10.674;2023-03-01T00:05:02;9.68;;;5.88;;
72785;SDS011;60902;53.876;10.674;2023-03-01T00:05:13;9.00;;;6.10;;
72785;SDS011;60902;53.876;10.674;2023-03-01T00:05:25;8.90;;;5.90;;
72785;SDS011;60902;53.876;10.674;2023-03-01T00:05:36;8.52;;;5.50;;
72785;SDS011;60902;53.876;10.674;2023-03-01T00:05:53;8.95;;;5.63;;
72785;SDS011;60902;53.876;10.674;2023-03-01T00:06:04;9.48;;;5.93;;
72785;SDS011;60902;53.876;10.674;2023-03-01T00:06:17;9.38;;;5.85;;
72785;SDS011;60902;53.876;10.674;2023-03-01T00:06:29;9.43;;;5.90;;
72785;SDS011;60902;53.876;10.674;2023-03-01T00:06:40;9.90;;;5.95;;
72785;SDS011;60902;53.876;10.674;2023-03-01T00:06:53;9.73;;;6.05;;
72785;SDS011;60902;53.876;10.674;2023-03-01T00:07:05;9.23;;;5.85;;
72785;SDS011;60902;53.876;10.674;2023-03-01T00:07:16;8.68;;;5.55;;
72785;SDS011;60902;53.876;10.674;2023-03-01T00:07:28;9.07;;;5.45;;
72785;SDS011;60902;53.876;10.674;2023-03-01T00:07:39;9.68;;;5.35;;
72785;SDS011;60902;53.876;10.674;2023-03-01T00:07:52;9.77;;;5.68;;
72785;SDS011;60902;53.876;10.674;2023-03-01T00:08:03;8.70;;;5.85;;
72785;SDS011;60902;53.876;10.674;2023-03-01T00:08:14;8.40;;;5.88;;
72785;SDS011;60902;53.876;10.674;2023-03-01T00:08:26;8.68;;;5.55;;
72785;SDS011;60902;53.876;10.674;2023-03-01T00:08:40;9.10;;;5.60;;
72785;SDS011;60902;53.876;10.674;2023-03-01T00:08:54;9.10;;;5.70;;
72785;SDS011;60902;53.876;10.674;2023-03-01T00:09:05;9.15;;;5.65;;
72785;SDS011;60902;53.876;10.674;2023-03-01T00:09:18;9.43;;;5.78;;
72785;SDS011;60902;53.876;10.674;2023-03-01T00:09:29;8.60;;;5.75;;
72785;SDS011;60902;53.876;10.674;2023-03-01T00:09:40;8.77;;;6.07;;
72785;SDS011;60902;53.876;10.674;2023-03-01T00:09:51;8.35;;;6.03;;
72785;SDS011;60902;53.876;10.674;2023-03-01T00:10:02;8.88;;;5.50;;
72785;SDS011;60902;53.876;10.674;2023-03-01T00:10:14;10.20;;;5.78;;
72785;SDS011;60902;53.876;10.674;2023-03-01T00:10:26;10.40;;;6.10;;
72785;SDS011;60902;53.876;10.674;2023-03-01T00:10:37;9.98;;;6.05;;
72785;SDS011;60902;53.876;10.674;2023-03-01T00:10:49;8.93;;;5.70;;
72785;SDS011;60902;53.876;10.674;2023-03-01T00:11:10;8.75;;;5.63;;
72785;SDS011;60902;53.876;10.674;2023-03-01T00:11:24;8.88;;;5.68;;
72785;SDS011;60902;53.876;10.674;2023-03-01T00:11:38;9.43;;;5.80;;
72785;SDS011;60902;53.876;10.674;2023-03-01T00:11:50;9.18;;;5.68;;
72785;SDS011;60902;53.876;10.674;2023-03-01T00:12:01;9.35;;;5.93;;
72785;SDS011;60902;53.876;10.674;2023-03-01T00:12:12;10.27;;;6.22;;
72785;SDS011;60902;53.876;10.674;2023-03-01T00:12:23;10.52;;;6.22;;
72785;SDS011;60902;53.876;10.674;2023-03-01T00:12:34;10.32;;;5.88;;
72785;SDS011;60902;53.876;10.674;2023-03-01T00:12:46;9.48;;;5.75;;
72785;SDS011;60902;53.876;10.674;2023-03-01T00:12:57;9.18;;;5.80;;
72785;SDS011;60902;53.876;10.674;2023-03-01T00:13:11;8.68;;;5.57;;
72785;SDS011;60902;53.876;10.674;2023-03-01T00:13:25;9.52;;;5.90;;
72785;SDS011;60902;53.876;10.674;2023-03-01T00:13:39;10.25;;;6.18;;
72785;SDS011;60902;53.876;10.674;2023-03-01T00:13:51;9.35;;;5.70;;
72785;SDS011;60902;53.876;10.674;2023-03-01T00:14:04;9.57;;;5.88;;
72785;SDS011;60902;53.876;10.674;2023-03-01T00:14:16;9.75;;;5.82;;
72785;SDS011;60902;53.876;10.674;2023-03-01T00:14:28;9.55;;;5.65;;
72785;SDS011;60902;53.876;10.674;2023-03-01T00:14:39;9.27;;;5.32;;
72785;SDS011;60902;53.876;10.674;2023-03-01T00:14:51;9.27;;;5.57;;
72785;SDS011;60902;53.876;10.674;2023-03-01T00:15:01;8.88;;;5.80;;
72785;SDS011;60902;53.876;10.674;2023-03-01T00:15:14;8.88;;;5.90;;
72785;SDS011;60902;53.876;10.674;2023-03-01T00:15:26;9.02;;;6.15;;
72785;SDS011;60902;53.876;10.674;2023-03-01T00:15:45;9.00;;;5.97;;
72785;SDS011;60902;53.876;10.674;2023-03-01T00:15:56;9.48;;;5.68;;
72785;SDS011;60902;53.876;10.674;2023-03-01T00:16:13;9.52;;;5.82;;
72785;SDS011;60902;53.876;10.674;2023-03-01T00:16:27;9.25;;;5.97;;
72785;SDS011;60902;53.876;10.674;2023-03-01T00:16:40;10.00;;;5.68;;
72785;SDS011;60902;53.876;10.674;2023-03-01T00:16:53;9.60;;;5.57;;
72785;SDS011;60902;53.876;10.674;2023-03-01T00:17:04;8.85;;;5.78;;
72785;SDS011;60902;53.876;10.674;2023-03-01T00:17:16;9.18;;;5.93;;
72785;SDS011;60902;53.876;10.674;2023-03-01T00:17:29;9.55;;;5.65;;
72785;SDS011;60902;53.876;10.674;2023-03-01T00:17:40;10.27;;;5.45;;
72785;SDS011;60902;53.876;10.674;2023-03-01T00:17:51;10.40;;;5.60;;
72785;SDS011;60902;53.876;10.674;2023-03-01T00:18:02;10.25;;;5.68;;
72785;SDS011;60902;53.876;10.674;2023-03-01T00:18:14;9.60;;;5.38;;
72785;SDS011;60902;53.876;10.674;2023-03-01T00:18:26;9.13;;;5.38;;
72785;SDS011;60902;53.876;10.674;2023-03-01T00:18:37;8.82;;;5.68;;
72785;SDS011;60902;53.876;10.674;2023-03-01T00:18:49;8.30;;;5.50;;
72785;SDS011;60902;53.876;10.674;2023-03-01T00:19:00;9.00;;;5.68;;
72785;SDS011;60902;53.876;10.674;2023-03-01T00:19:13;9.50;;;5.50;;
72785;SDS011;60902;53.876;10.674;2023-03-01T00:19:25;9.18;;;6.10;;
72785;SDS011;60902;53.876;10.674;2023-03-01T00:19:37;8.10;;;5.82;;
72785;SDS011;60902;53.876;10.674;2023-03-01T00:19:54;8.50;;;5.50;;
72785;SDS011;60902;53.876;10.674;2023-03-01T00:20:06;9.07;;;5.82;;
72785;SDS011;60902;53.876;10.674;2023-03-01T00:20:20;9.30;;;5.93;;
72785;SDS011;60902;53.876;10.674;2023-03-01T00:20:34;9.93;;;5.80;;
72785;SDS011;60902;53.876;10.674;2023-03-01T00:20:48;9.90;;;5.70;;
72785;SDS011;60902;53.876;10.674;2023-03-01T00:21:00;9.63;;;5.65;;
72785;SDS011;60902;53.876;10.674;2023-03-01T00:21:13;9.27;;;5.70;;
72785;SDS011;60902;53.876;10.674;2023-03-01T00:21:27;8.70;;;5.72;;
72785;SDS011;60902;53.876;10.674;2023-03-01T00:21:38;8.63;;;5.70;;
72785;SDS011;60902;53.876;10.674;2023-03-01T00:21:50;9.07;;;5.47;;
72785;SDS011;60902;53.876;10.674;2023-03-01T00:22:00;9.35;;;5.43;;
72785;SDS011;60902;53.876;10.674;2023-03-01T00:22:13;9.55;;;5.38;;
72785;SDS011;60902;53.876;10.674;2023-03-01T00:22:30;9.43;;;5.40;;
72785;SDS011;60902;53.876;10.674;2023-03-01T00:22:42;9.60;;;5.40;;
72785;SDS011;60902;53.876;10.674;2023-03-01T00:22:53;9.05;;;5.43;;
72785;SDS011;60902;53.876;10.674;2023-03-01T00:23:04;8.80;;;5.55;;
72785;SDS011;60902;53.876;10.674;2023-03-01T00:23:17;9.10;;;5.90;;
72785;SDS011;60902;53.876;10.674;2023-03-01T00:23:28;9.13;;;5.95;;
72785;SDS011;60902;53.876;10.674;2023-03-01T00:23:39;9.30;;;5.70;;
72785;SDS011;60902;53.876;10.674;2023-03-01T00:23:51;9.63;;;5.70;;
72785;SDS011;60902;53.876;10.674;2023-03-01T00:24:02;10.15;;;5.72;;
72785;SDS011;60902;53.876;10.674;2023-03-01T00:24:15;9.00;;;5.55;;
72785;SDS011;60902;53.876;10.674;2023-03-01T00:24:26;8.73;;;5.38;;
72785;SDS011;60902;53.876;10.674;2023-03-01T00:24:37;8.73;;;5.75;;
72785;SDS011;60902;53.876;10.674;2023-03-01T00:24:48;9.05;;;6.13;;
72785;SDS011;60902;53.876;10.674;2023-03-01T00:25:00;9.60;;;5.82;;
72785;SDS011;60902;53.876;10.674;2023-03-01T00:25:11;10.05;;;5.47;;
72785;SDS011;60902;53.876;10.674;2023-03-01T00:25:22;10.02;;;5.25;;
72785;SDS011;60902;53.876;10.674;2023-03-01T00:25:33;9.23;;;5.22;;
72785;SDS011;60902;53.876;10.674;2023-03-01T00:25:55;8.75;;;5.45;;
72785;SDS011;60902;53.876;10.674;2023-03-01T00:26:06;9.48;;;5.53;;
72785;SDS011;60902;53.876;10.674;2023-03-01T00:26:20;9.20;;;5.57;;
72785;SDS011;60902;53.876;10.674;2023-03-01T00:26:33;8.63;;;5.35;;
72785;SDS011;60902;53.876;10.674;2023-03-01T00:26:44;9.07;;;5.50;;
72785;SDS011;60902;53.876;10.674;2023-03-01T00:26:56;9.48;;;6.03;;
72785;SDS011;60902;53.876;10.674;2023-03-01T00:27:09;9.73;;;5.78;;
72785;SDS011;60902;53.876;10.674;2023-03-01T00:27:20;9.02;;;5.30;;
72785;SDS011;60902;53.876;10.674;2023-03-01T00:27:33;8.50;;;5.07;;
72785;SDS011;60902;53.876;10.674;2023-03-01T00:27:44;9.60;;;5.57;;
72785;SDS011;60902;53.876;10.674;2023-03-01T00:27:58;10.18;;;5.95;;
72785;SDS011;60902;53.876;10.674;2023-03-01T00:28:10;8.68;;;5.50;;
72785;SDS011;60902;53.876;10.674;2023-03-01T00:28:21;7.95;;;5.25;;
72785;SDS011;60902;53.876;10.674;2023-03-01T00:28:33;7.68;;;5.20;;
72785;SDS011;60902;53.876;10.674;2023-03-01T00:28:44;8.38;;;5.18;;
72785;SDS011;60902;53.876;10.674;2023-03-01T00:29:10;8.50;;;5.43;;
72785;SDS011;60902;53.876;10.674;2023-03-01T00:29:21;9.40;;;5.60;;
72785;SDS011;60902;53.876;10.674;2023-03-01T00:29:33;9.45;;;5.70;;
72785;SDS011;60902;53.876;10.674;2023-03-01T00:29:45;9.10;;;5.70;;
72785;SDS011;60902;53.876;10.674;2023-03-01T00:29:56;8.85;;;5.55;;
72785;SDS011;60902;53.876;10.674;2023-03-01T00:30:08;8.98;;;5.60;;
72785;SDS011;60902;53.876;10.674;2023-03-01T00:30:20;9.00;;;5.53;;
72785;SDS011;60902;53.876;10.674;2023-03-01T00:30:31;8.82;;;5.50;;
72785;SDS011;60902;53.876;10.674;2023-03-01T00:30:43;9.27;;;5.90;;
72785;SDS011;60902;53.876;10.674;2023-03-01T00:30:56;9.20;;;5.82;;
72785;SDS011;60902;53.876;10.674;2023-03-01T00:31:20;8.27;;;5.50;;
72785;SDS011;60902;53.876;10.674;2023-03-01T00:31:34;8.30;;;5.65;;
72785;SDS011;60902;53.876;10.674;2023-03-01T00:31:45;8.63;;;5.50;;
72785;SDS011;60902;53.876;10.674;2023-03-01T00:31:57;9.05;;;5.60;;
72785;SDS011;60902;53.876;10.674;2023-03-01T00:32:11;8.85;;;5.68;;
72785;SDS011;60902;53.876;10.674;2023-03-01T00:32:22;8.73;;;5.50;;
72785;SDS011;60902;53.876;10.674;2023-03-01T00:32:33;8.70;;;5.63;;
72785;SDS011;60902;53.876;10.674;2023-03-01T00:32:46;9.02;;;5.85;;
72785;SDS011;60902;53.876;10.674;2023-03-01T00:33:00;8.85;;;5.85;;
72785;SDS011;60902;53.876;10.674;2023-03-01T00:33:20;9.00;;;5.68;;
72785;SDS011;60902;53.876;10.674;2023-03-01T00:33:31;9.00;;;5.50;;
72785;SDS011;60902;53.876;10.674;2023-03-01T00:33:46;8.55;;;5.40;;
72785;SDS011;60902;53.876;10.674;2023-03-01T00:33:58;8.60;;;5.57;;
72785;SDS011;60902;53.876;10.674;2023-03-01T00:34:11;8.75;;;5.53;;
72785;SDS011;60902;53.876;10.674;2023-03-01T00:34:23;8.68;;;5.63;;
72785;SDS011;60902;53.876;10.674;2023-03-01T00:34:34;8.35;;;5.53;;
72785;SDS011;60902;53.876;10.674;2023-03-01T00:34:47;9.13;;;5.65;;
72785;SDS011;60902;53.876;10.674;2023-03-01T00:35:06;9.30;;;5.60;;
72785;SDS011;60902;53.876;10.674;2023-03-01T00:35:18;8.43;;;5.57;;
72785;SDS011;60902;53.876;10.674;2023-03-01T00:35:35;8.57;;;5.70;;
72785;SDS011;60902;53.876;10.674;2023-03-01T00:35:51;8.60;;;5.80;;
72785;SDS011;60902;53.876;10.674;2023-03-01T00:36:04;8.30;;;5.68;;
72785;SDS011;60902;53.876;10.674;2023-03-01T00:36:16;8.70;;;5.57;;
72785;SDS011;60902;53.876;10.674;2023-03-01T00:36:28;8.43;;;5.28;;
72785;SDS011;60902;53.876;10.674;2023-03-01T00:36:41;8.85;;;5.38;;
72785;SDS011;60902;53.876;10.674;2023-03-01T00:36:52;9.63;;;5.72;;
72785;SDS011;60902;53.876;10.674;2023-03-01T00:37:03;9.45;;;5.82;;
72785;SDS011;60902;53.876;10.674;2023-03-01T00:37:19;9.32;;;5.65;;
72785;SDS011;60902;53.876;10.674;2023-03-01T00:37:31;8.38;;;4.95;;
72785;SDS011;60902;53.876;10.674;2023-03-01T00:37:50;8.63;;;5.25;;
72785;SDS011;60902;53.876;10.674;2023-03-01T00:38:07;9.20;;;5.78;;
72785;SDS011;60902;53.876;10.674;2023-03-01T00:38:19;9.23;;;5.55;;
72785;SDS011;60902;53.876;10.674;2023-03-01T00:38:34;9.48;;;5.53;;
72785;SDS011;60902;53.876;10.674;2023-03-01T00:38:48;8.75;;;5.50;;
72785;SDS011;60902;53.876;10.674;2023-03-01T00:38:59;8.38;;;5.38;;
72785;SDS011;60902;53.876;10.674;2023-03-01T00:39:14;9.30;;;5.63;;
72785;SDS011;60902;53.876;10.674;2023-03-01T00:39:26;9.43;;;5.93;;
72785;SDS011;60902;53.876;10.674;2023-03-01T00:39:40;9.18;;;5.68;;
72785;SDS011;60902;53.876;10.674;2023-03-01T00:39:56;9.23;;;5.33;;
72785;SDS011;60902;53.876;10.674;2023-03-01T00:40:17;8.52;;;5.47;;
72785;SDS011;60902;53.876;10.674;2023-03-01T00:40:28;8.32;;;5.80;;
72785;SDS011;60902;53.876;10.674;2023-03-01T00:40:40;8.10;;;5.70;;
72785;SDS011;60902;53.876;10.674;2023-03-01T00:40:53;8.90;;;5.68;;
72785;SDS011;60902;53.876;10.674;2023-03-01T00:41:07;9.35;;;5.78;;
72785;SDS011;60902;53.876;10.674;2023-03-01T00:41:22;8.60;;;5.60;;
72785;SDS011;60902;53.876;10.674;2023-03-01T00:41:34;8.90;;;5.55;;
72785;SDS011;60902;53.876;10.674;2023-03-01T00:41:48;9.27;;;5.47;;
72785;SDS011;60902;53.876;10.674;2023-03-01T00:42:00;9.43;;;5.60;;
72785;SDS011;60902;53.876;10.674;2023-03-01T00:42:12;9.27;;;5.65;;
72785;SDS011;60902;53.876;10.674;2023-03-01T00:42:33;8.88;;;5.22;;
72785;SDS011;60902;53.876;10.674;2023-03-01T00:42:47;8.65;;;5.55;;
72785;SDS011;60902;53.876;10.674;2023-03-01T00:42:59;9.38;;;5.60;;
72785;SDS011;60902;53.876;10.674;2023-03-01T00:43:11;9.93;;;5.53;;
72785;SDS011;60902;53.876;10.674;2023-03-01T00:43:22;9.82;;;5.57;;
72785;SDS011;60902;53.876;10.674;2023-03-01T00:43:33;9.00;;;5.53;;
72785;SDS011;60902;53.876;10.674;2023-03-01T00:43:46;8.40;;;5.38;;
72785;SDS011;60902;53.876;10.674;2023-03-01T00:43:58;8.48;;;5.25;;
72785;SDS011;60902;53.876;10.674;2023-03-01T00:44:12;8.75;;;5.25;;
72785;SDS011;60902;53.876;10.674;2023-03-01T00:44:23;8.90;;;5.47;;
72785;SDS011;60902;53.876;10.674;2023-03-01T00:44:36;8.75;;;5.57;;
72785;SDS011;60902;53.876;10.674;2023-03-01T00:44:47;8.40;;;5.18;;
72785;SDS011;60902;53.876;10.674;2023-03-01T00:44:59;8.90;;;5.05;;
72785;SDS011;60902;53.876;10.674;2023-03-01T00:45:10;9.20;;;5.18;;
72785;SDS011;60902;53.876;10.674;2023-03-01T00:45:26;9.27;;;5.35;;
72785;SDS011;60902;53.876;10.674;2023-03-01T00:45:37;9.00;;;5.55;;
72785;SDS011;60902;53.876;10.674;2023-03-01T00:45:48;9.25;;;5.70;;
72785;SDS011;60902;53.876;10.674;2023-03-01T00:46:00;9.35;;;5.80;;
72785;SDS011;60902;53.876;10.674;2023-03-01T00:46:13;9.13;;;5.45;;
72785;SDS011;60902;53.876;10.674;2023-03-01T00:46:26;8.57;;;5.22;;
72785;SDS011;60902;53.876;10.674;2023-03-01T00:46:43;8.68;;;5.40;;
72785;SDS011;60902;53.876;10.674;2023-03-01T00:47:03;9.15;;;5.70;;
72785;SDS011;60902;53.876;10.674;2023-03-01T00:47:14;9.00;;;5.50;;
72785;SDS011;60902;53.876;10.674;2023-03-01T00:47:28;9.02;;;5.47;;
72785;SDS011;60902;53.876;10.674;2023-03-01T00:47:39;9.43;;;5.50;;
72785;SDS011;60902;53.876;10.674;2023-03-01T00:47:50;9.07;;;5.50;;
72785;SDS011;60902;53.876;10.674;2023-03-01T00:48:02;8.98;;;5.50;;
72785;SDS011;60902;53.876;10.674;2023-03-01T00:48:15;8.75;;;5.68;;
72785;SDS011;60902;53.876;10.674;2023-03-01T00:48:26;9.27;;;5.65;;
72785;SDS011;60902;53.876;10.674;2023-03-01T00:48:37;9.63;;;5.68;;
72785;SDS011;60902;53.876;10.674;2023-03-01T00:48:50;9.38;;;5.60;;
72785;SDS011;60902;53.876;10.674;2023-03-01T00:49:09;8.63;;;5.80;;
72785;SDS011;60902;53.876;10.674;2023-03-01T00:49:20;8.65;;;5.43;;
72785;SDS011;60902;53.876;10.674;2023-03-01T00:49:34;9.05;;;5.72;;
72785;SDS011;60902;53.876;10.674;2023-03-01T00:49:46;9.57;;;6.00;;
72785;SDS011;60902;53.876;10.674;2023-03-01T00:49:58;10.18;;;6.05;;
72785;SDS011;60902;53.876;10.674;2023-03-01T00:50:10;9.68;;;5.55;;
72785;SDS011;60902;53.876;10.674;2023-03-01T00:50:22;9.35;;;5.10;;
72785;SDS011;60902;53.876;10.674;2023-03-01T00:50:36;9.25;;;5.00;;
72785;SDS011;60902;53.876;10.674;2023-03-01T00:50:47;10.10;;;5.10;;
72785;SDS011;60902;53.876;10.674;2023-03-01T00:51:04;9.70;;;5.20;;
72785;SDS011;60902;53.876;10.674;2023-03-01T00:51:25;9.13;;;5.50;;
72785;SDS011;60902;53.876;10.674;2023-03-01T00:51:39;9.52;;;5.53;;
72785;SDS011;60902;53.876;10.674;2023-03-01T00:51:51;9.13;;;5.38;;
72785;SDS011;60902;53.876;10.674;2023-03-01T00:52:02;9.05;;;5.30;;
72785;SDS011;60902;53.876;10.674;2023-03-01T00:52:14;7.97;;;5.00;;
72785;SDS011;60902;53.876;10.674;2023-03-01T00:52:27;7.78;;;4.82;;
72785;SDS011;60902;53.876;10.674;2023-03-01T00:52:39;8.38;;;5.15;;
72785;SDS011;60902;53.876;10.674;2023-03-01T00:52:53;8.65;;;5.63;;
72785;SDS011;60902;53.876;10.674;2023-03-01T00:53:05;8.45;;;5.43;;
72785;SDS011;60902;53.876;10.674;2023-03-01T00:53:17;8.40;;;5.20;;
72785;SDS011;60902;53.876;10.674;2023-03-01T00:53:28;9.27;;;5.68;;
72785;SDS011;60902;53.876;10.674;2023-03-01T00:53:39;9.60;;;5.90;;
72785;SDS011;60902;53.876;10.674;2023-03-01T00:53:52;9.38;;;5.68;;
72785;SDS011;60902;53.876;10.674;2023-03-01T00:54:09;8.10;;;5.03;;
72785;SDS011;60902;53.876;10.674;2023-03-01T00:54:22;8.95;;;5.30;;
72785;SDS011;60902;53.876;10.674;2023-03-01T00:54:33;9.15;;;5.43;;
72785;SDS011;60902;53.876;10.674;2023-03-01T00:54:45;9.35;;;5.78;;
72785;SDS011;60902;53.876;10.674;2023-03-01T00:55:02;9.30;;;5.93;;
72785;SDS011;60902;53.876;10.674;2023-03-01T00:55:13;9.00;;;6.05;;
72785;SDS011;60902;53.876;10.674;2023-03-01T00:55:25;9.15;;;5.65;;
72785;SDS011;60902;53.876;10.674;2023-03-01T00:55:39;9.10;;;5.47;;
72785;SDS011;60902;53.876;10.674;2023-03-01T00:55:54;9.93;;;5.43;;
72785;SDS011;60902;53.876;10.674;2023-03-01T00:56:08;9.55;;;5.30;;
72785;SDS011;60902;53.876;10.674;2023-03-01T00:56:22;8.93;;;5.32;;
72785;SDS011;60902;53.876;10.674;2023-03-01T00:56:36;9.10;;;5.28;;
72785;SDS011;60902;53.876;10.674;2023-03-01T00:56:47;8.68;;;5.03;;
72785;SDS011;60902;53.876;10.674;2023-03-01T00:56:58;8.55;;;4.90;;
72785;SDS011;60902;53.876;10.674;2023-03-01T00:57:09;8.20;;;4.95;;
72785;SDS011;60902;53.876;10.674;2023-03-01T00:57:22;7.65;;;4.93;;
72785;SDS011;60902;53.876;10.674;2023-03-01T00:57:34;7.60;;;4.90;;
72785;SDS011;60902;53.876;10.674;2023-03-01T00:57:46;8.30;;;5.30;;
72785;SDS011;60902;53.876;10.674;2023-03-01T00:57:57;8.48;;;5.38;;
72785;SDS011;60902;53.876;10.674;2023-03-01T00:58:15;8.45;;;5.28;;
72785;SDS011;60902;53.876;10.674;2023-03-01T00:58:27;8.65;;;5.43;;
72785;SDS011;60902;53.876;10.674;2023-03-01T00:58:38;8.65;;;5.55;;
72785;SDS011;60902;53.876;10.674;2023-03-01T00:58:50;8.38;;;5.40;;
72785;SDS011;60902;53.876;10.674;2023-03-01T00:59:01;8.70;;;5.47;;
72785;SDS011;60902;53.876;10.674;2023-03-01T00:59:12;8.98;;;5.50;;
72785;SDS011;60902;53.876;10.674;2023-03-01T00:59:24;8.68;;;5.57;;
72785;SDS011;60902;53.876;10.674;2023-03-01T00:59:36;8.15;;;5.25;;
72785;SDS011;60902;53.876;10.674;2023-03-01T00:59:48;8.55;;;5.20;;
72785;SDS011;60902;53.876;10.674;2023-03-01T01:00:02;9.90;;;5.38;;
72785;SDS011;60902;53.876;10.674;2023-03-01T01:00:17;9.50;;;5.40;;
72785;SDS011;60902;53.876;10.674;2023-03-01T01:00:29;8.50;;;5.22;;
72785;SDS011;60902;53.876;10.674;2023-03-01T01:00:40;8.63;;;5.50;;
72785;SDS011;60902;53.876;10.674;2023-03-01T01:00:51;8.30;;;5.60;;
72785;SDS011;60902;53.876;10.674;2023-03-01T01:01:06;8.30;;;5.53;;
72785;SDS011;60902;53.876;10.674;2023-03-01T01:01:28;8.27;;;5.10;;
72785;SDS011;60902;53.876;10.674;2023-03-01T01:01:41;8.43;;;5.20;;
72785;SDS011;60902;53.876;10.674;2023-03-01T01:01:52;8.18;;;5.22;;
72785;SDS011;60902;53.876;10.674;2023-03-01T01:02:04;8.52;;;5.60;;
72785;SDS011;60902;53.876;10.674;2023-03-01T01:02:15;9.07;;;5.93;;
72785;SDS011;60902;53.876;10.674;2023-03-01T01:02:26;9.02;;;6.03;;
72785;SDS011;60902;53.876;10.674;2023-03-01T01:02:46;8.82;;;5.70;;
72785;SDS011;60902;53.876;10.674;2023-03-01T01:02:59;9.82;;;5.53;;
72785;SDS011;60902;53.876;10.674;2023-03-01T01:03:13;9.50;;;5.45;;
72785;SDS011;60902;53.876;10.674;2023-03-01T01:03:24;9.10;;;5.38;;
72785;SDS011;60902;53.876;10.674;2023-03-01T01:03:35;9.60;;;5.50;;
72785;SDS011;60902;53.876;10.674;2023-03-01T01:03:46;10.15;;;5.70;;
72785;SDS011;60902;53.876;10.674;2023-03-01T01:04:01;9.68;;;5.75;;
72785;SDS011;60902;53.876;10.674;2023-03-01T01:04:13;9.75;;;5.75;;
72785;SDS011;60902;53.876;10.674;2023-03-01T01:04:26;10.50;;;5.70;;
72785;SDS011;60902;53.876;10.674;2023-03-01T01:04:37;9.95;;;5.65;;
72785;SDS011;60902;53.876;10.674;2023-03-01T01:04:50;9.88;;;5.60;;
72785;SDS011;60902;53.876;10.674;2023-03-01T01:05:01;9.40;;;5.43;;
72785;SDS011;60902;53.876;10.674;2023-03-01T01:05:13;9.15;;;5.25;;
72785;SDS011;60902;53.876;10.674;2023-03-01T01:05:24;8.05;;;5.40;;
72785;SDS011;60902;53.876;10.674;2023-03-01T01:05:35;8.10;;;5.38;;
72785;SDS011;60902;53.876;10.674;2023-03-01T01:05:47;8.07;;;5.45;;
72785;SDS011;60902;53.876;10.674;2023-03-01T01:06:19;9.02;;;5.68;;
72785;SDS011;60902;53.876;10.674;2023-03-01T01:06:34;9.75;;;5.68;;
72785;SDS011;60902;53.876;10.674;2023-03-01T01:06:46;9.50;;;5.28;;
72785;SDS011;60902;53.876;10.674;2023-03-01T01:06:57;8.93;;;5.30;;
72785;SDS011;60902;53.876;10.674;2023-03-01T01:07:14;9.35;;;5.22;;
72785;SDS011;60902;53.876;10.674;2023-03-01T01:07:28;9.63;;;5.63;;
72785;SDS011;60902;53.876;10.674;2023-03-01T01:07:39;9.43;;;5.68;;
72785;SDS011;60902;53.876;10.674;2023-03-01T01:07:51;9.77;;;5.60;;
72785;SDS011;60902;53.876;10.674;2023-03-01T01:08:02;9.82;;;5.72;;
72785;SDS011;60902;53.876;10.674;2023-03-01T01:08:13;9.88;;;5.70;;
72785;SDS011;60902;53.876;10.674;2023-03-01T01:08:24;9.40;;;5.38;;
72785;SDS011;60902;53.876;10.674;2023-03-01T01:08:35;9.52;;;5.05;;
72785;SDS011;60902;53.876;10.674;2023-03-01T01:08:47;9.10;;;5.38;;
72785;SDS011;60902;53.876;10.674;2023-03-01T01:08:59;8.82;;;5.25;;
72785;SDS011;60902;53.876;10.674;2023-03-01T01:09:12;8.32;;;5.50;;
72785;SDS011;60902;53.876;10.674;2023-03-01T01:09:34;8.38;;;5.38;;
72785;SDS011;60902;53.876;10.674;2023-03-01T01:09:47;8.57;;;5.18;;
72785;SDS011;60902;53.876;10.674;2023-03-01T01:09:59;8.35;;;5.10;;
72785;SDS011;60902;53.876;10.674;2023-03-01T01:10:10;9.32;;;5.38;;
72785;SDS011;60902;53.876;10.674;2023-03-01T01:10:27;10.10;;;5.82;;
72785;SDS011;60902;53.876;10.674;2023-03-01T01:10:38;9.65;;;5.72;;
72785;SDS011;60902;53.876;10.674;2023-03-01T01:10:49;9.23;;;5.53;;
72785;SDS011;60902;53.876;10.674;2023-03-01T01:11:02;8.75;;;5.20;;
72785;SDS011;60902;53.876;10.674;2023-03-01T01:11:14;8.75;;;5.53;;
72785;SDS011;60902;53.876;10.674;2023-03-01T01:11:26;8.27;;;5.60;;
72785;SDS011;60902;53.876;10.674;2023-03-01T01:11:38;8.32;;;5.40;;
72785;SDS011;60902;53.876;10.674;2023-03-01T01:11:52;9.03;;;5.33;;
72785;SDS011;60902;53.876;10.674;2023-03-01T01:12:04;9.05;;;5.43;;
72785;SDS011;60902;53.876;10.674;2023-03-01T01:12:17;8.48;;;5.32;;
72785;SDS011;60902;53.876;10.674;2023-03-01T01:12:28;8.77;;;5.40;;
72785;SDS011;60902;53.876;10.674;2023-03-01T01:12:39;9.27;;;5.35;;
72785;SDS011;60902;53.876;10.674;2023-03-01T01:12:53;10.25;;;5.75;;
72785;SDS011;60902;53.876;10.674;2023-03-01T01:13:08;9.75;;;5.80;;
72785;SDS011;60902;53.876;10.674;2023-03-01T01:13:20;9.80;;;5.85;;
72785;SDS011;60902;53.876;10.674;2023-03-01T01:13:32;8.93;;;5.63;;
72785;SDS011;60902;53.876;10.674;2023-03-01T01:13:44;8.45;;;5.30;;
72785;SDS011;60902;53.876;10.674;2023-03-01T01:13:57;8.15;;;5.10;;
72785;SDS011;60902;53.876;10.674;2023-03-01T01:14:21;10.13;;;5.72;;
72785;SDS011;60902;53.876;10.674;2023-03-01T01:14:35;10.82;;;5.80;;
72785;SDS011;60902;53.876;10.674;2023-03-01T01:14:53;10.02;;;5.57;;
72785;SDS011;60902;53.876;10.674;2023-03-01T01:15:08;9.60;;;5.70;;
72785;SDS011;60902;53.876;10.674;2023-03-01T01:15:22;9.60;;;5.88;;
72785;SDS011;60902;53.876;10.674;2023-03-01T01:15:33;9.95;;;5.93;;
72785;SDS011;60902;53.876;10.674;2023-03-01T01:15:44;9.25;;;6.00;;
72785;SDS011;60902;53.876;10.674;2023-03-01T01:16:00;8.90;;;5.93;;
72785;SDS011;60902;53.876;10.674;2023-03-01T01:16:20;8.88;;;5.78;;
72785;SDS011;60902;53.876;10.674;2023-03-01T01:16:34;8.40;;;4.97;;
72785;SDS011;60902;53.876;10.674;2023-03-01T01:16:45;8.77;;;5.22;;
72785;SDS011;60902;53.876;10.674;2023-03-01T01:16:58;8.00;;;5.40;;
72785;SDS011;60902;53.876;10.674;2023-03-01T01:17:09;8.85;;;5.68;;